VLS weather

Valesdir Airport
Epi Island, Shefa, Vanuatu

Public forecast

Using degrees Celsius for public forecast. Weather courtesy of forecast.io.

Closest aviation weather report (METAR) to Valesdir Airport

Report is more than 6 hours old.

Closest report is Lamap Airport, 28.4 nm (52.5 km) NW. Retrieved 2020/04/05 21:00 UTC (4 months ago):

NVSL 052100Z 09021KT //// // NCD //// Q0999

Closest aviation forecast (TAF) to Valesdir Airport

Closest forecast is Lamap Airport, 28.4 nm (52.5 km) NW. Retrieved 2020-08-04 00:34 UTC (4 hours ago):

TAF NVSL 032220Z 0400/0424 13512KT 9999 SCT025